Rivne, Ukraine
Current Conditions -  °F | °C
As of 6:30 AM on Sunday 26 Oct 2014 (Local Time) from UKLL Reporting Station
Clear Clear  
Wind Chill: 15°   Ceiling: Unl
Heat Index: 25°   Visibility: 6mi
Dew Point: 19°   Wind: 9mph
Humidity: 80%   Direction: 140°SE
Pressure: 30.42"   Gusts: NA
Location:  50.62°N, 26.25°E
Report Text: UKLL 260330Z 14004MPS CAVOK M04/M07 Q1030 13CLRD80 NOSIG
Loading
Personal Weather Stations






























Interactive Weather Map
Tropical Storm Tracking
New forecast layout! Learn more

10-Day Weather Forecast

Advertisements
Track Severe Weather on mobile